Time;durP1;ratioP1;P1;durP2;ratioP2;P2;SDS_P1;SDS_P2;PMS_P1;PMS_P2;Temp;Humidity;BMP_temperature;BMP_pressure;BME280_temperature;BME280_humidity;BME280_pressure;Samples;Min_cycle;Max_cycle;Signal;HPM_P1;HPM_P2
2021/03/08 00:01:24;;;;;;;12.83;7.07;;;1.70;99.90;;;;;;5046766;28;20010;-94
2021/03/08 00:03:50;;;;;;;12.77;6.87;;;1.60;99.90;;;;;;5052901;28;20048;-93
2021/03/08 00:06:16;;;;;;;11.07;6.60;;;1.70;98.50;;;;;;5038920;28;20077;-93
2021/03/08 00:08:41;;;;;;;11.00;6.27;;;1.70;98.60;;;;;;5057456;28;20017;-93
2021/03/08 00:11:07;;;;;;;9.87;6.03;;;1.70;97.80;;;;;;5050038;28;20215;-94
2021/03/08 00:13:32;;;;;;;12.03;6.63;;;1.70;96.10;;;;;;5052632;28;20014;-93
2021/03/08 00:15:58;;;;;;;10.37;5.90;;;1.80;95.20;;;;;;5052906;28;20013;-94
2021/03/08 00:18:25;;;;;;;10.57;5.77;;;1.80;94.30;;;;;;5054405;28;20020;-92
2021/03/08 00:20:50;;;;;;;11.33;6.50;;;1.80;94.00;;;;;;5058542;28;20084;-92
2021/03/08 00:23:17;;;;;;;11.07;5.87;;;1.80;93.40;;;;;;5055021;28;20040;-94
2021/03/08 00:25:43;;;;;;;12.17;6.40;;;1.90;93.10;;;;;;5054762;28;20027;-95
2021/03/08 00:28:09;;;;;;;9.40;6.00;;;1.90;93.00;;;;;;5050093;28;20036;-93
2021/03/08 00:30:34;;;;;;;11.60;6.63;;;1.80;92.70;;;;;;5056453;28;20024;-93
2021/03/08 00:33:01;;;;;;;9.50;5.60;;;2.00;92.40;;;;;;5050725;28;20013;-95
2021/03/08 00:35:26;;;;;;;10.67;6.00;;;1.90;92.50;;;;;;5047089;28;20005;-93
2021/03/08 00:37:52;;;;;;;10.53;6.60;;;1.90;92.70;;;;;;5054099;28;20009;-94
2021/03/08 00:40:20;;;;;;;9.30;5.67;;;1.90;92.70;;;;;;5050019;28;20035;-93
2021/03/08 00:42:46;;;;;;;10.17;6.10;;;1.90;92.40;;;;;;5058259;28;20028;-92
2021/03/08 00:45:17;;;;;;;10.60;6.13;;;1.80;92.70;;;;;;5048528;28;20021;-94
2021/03/08 00:47:44;;;;;;;9.93;5.80;;;1.80;93.10;;;;;;5052132;28;20010;-92
2021/03/08 00:50:16;;;;;;;11.67;5.70;;;1.70;92.60;;;;;;5042547;28;20017;-93
2021/03/08 00:52:42;;;;;;;11.93;6.20;;;1.70;92.60;;;;;;5050476;28;20050;-93
2021/03/08 00:55:09;;;;;;;9.87;5.50;;;1.70;92.50;;;;;;5048289;28;20085;-95
2021/03/08 00:57:35;;;;;;;12.33;6.27;;;1.80;92.60;;;;;;5064204;28;20012;-95
2021/03/08 01:00:01;;;;;;;11.13;6.40;;;1.70;92.80;;;;;;5052435;28;20074;-93
2021/03/08 01:02:26;;;;;;;11.77;6.53;;;1.80;92.40;;;;;;5047601;28;20033;-94
2021/03/08 01:04:52;;;;;;;11.40;5.83;;;1.80;92.60;;;;;;5058014;28;20083;-93
2021/03/08 01:07:18;;;;;;;10.50;5.90;;;1.70;92.80;;;;;;5055046;28;20055;-94
2021/03/08 01:09:44;;;;;;;14.10;6.20;;;1.80;92.70;;;;;;5055702;28;20033;-95
2021/03/08 01:12:10;;;;;;;10.00;5.73;;;1.70;92.60;;;;;;5049367;28;20033;-93
2021/03/08 01:14:36;;;;;;;10.03;5.87;;;1.70;92.60;;;;;;5051891;28;20024;-94
2021/03/08 01:17:01;;;;;;;11.57;6.40;;;1.70;92.40;;;;;;5046076;28;20010;-93
2021/03/08 01:19:27;;;;;;;11.77;6.80;;;1.80;92.40;;;;;;5049167;28;20009;-94
2021/03/08 01:21:53;;;;;;;11.53;6.37;;;1.80;92.60;;;;;;5057863;28;20009;-93
2021/03/08 01:24:19;;;;;;;11.33;6.07;;;1.80;92.40;;;;;;5050593;28;20026;-94
2021/03/08 01:26:44;;;;;;;14.83;6.33;;;1.80;92.70;;;;;;5050764;28;20040;-95
2021/03/08 01:29:11;;;;;;;11.90;6.30;;;1.70;92.90;;;;;;5054301;28;20020;-94
2021/03/08 01:31:37;;;;;;;13.17;6.60;;;1.70;93.40;;;;;;5051455;28;20097;-93
2021/03/08 01:34:03;;;;;;;13.33;6.47;;;1.70;93.70;;;;;;5056490;28;20013;-94
2021/03/08 01:36:31;;;;;;;12.03;6.80;;;1.60;93.50;;;;;;5044146;28;20056;-94
2021/03/08 01:38:57;;;;;;;11.03;6.20;;;1.60;94.10;;;;;;5054788;28;20029;-95
2021/03/08 01:41:23;;;;;;;13.20;6.90;;;1.40;94.80;;;;;;5058342;28;20040;-95
2021/03/08 01:43:49;;;;;;;11.17;6.50;;;1.40;94.60;;;;;;5045367;28;20029;-93
2021/03/08 01:46:14;;;;;;;11.40;6.63;;;1.40;95.20;;;;;;5050201;28;20089;-93
2021/03/08 01:48:40;;;;;;;12.07;6.63;;;1.40;95.20;;;;;;5056982;28;20076;-93
2021/03/08 01:51:06;;;;;;;12.17;7.03;;;1.40;95.30;;;;;;5051586;28;20311;-94
2021/03/08 01:53:35;;;;;;;14.23;7.07;;;1.50;95.50;;;;;;5051154;28;20017;-93
2021/03/08 01:56:04;;;;;;;14.73;7.53;;;1.40;96.00;;;;;;5048452;28;20041;-93
2021/03/08 06:53:15;;;;;;;26.23;13.67;;;0.10;99.90;;;;;;5030488;28;20037;-94
2021/03/08 06:55:42;;;;;;;22.73;13.37;;;0.20;99.90;;;;;;5028806;28;20033;-93
2021/03/08 06:58:18;;;;;;;20.50;13.20;;;0.20;99.90;;;;;;5035844;28;20119;-93
2021/03/08 07:00:51;;;;;;;20.93;13.10;;;0.40;99.90;;;;;;5026335;28;20533;-94
2021/03/08 07:03:33;;;;;;;22.23;13.67;;;0.50;99.90;;;;;;5041749;28;20005;-95
2021/03/08 07:06:16;;;;;;;21.10;14.03;;;0.50;99.90;;;;;;5049476;28;20056;-95
2021/03/08 07:08:45;;;;;;;19.70;12.67;;;0.70;99.90;;;;;;5054209;28;20059;-95
2021/03/08 07:11:20;;;;;;;23.60;13.70;;;0.70;99.90;;;;;;5049008;28;20033;-96
2021/03/08 08:05:32;;;;;;;32.97;15.63;;;1.40;99.90;;;;;;1281868;22;21444;-88
2021/03/08 08:08:08;;;;;;;24.60;15.80;;;1.40;99.90;;;;;;5075181;28;20078;-92
2021/03/08 08:29:03;;;;;;;27.67;15.70;;;1.90;99.90;;;;;;5031729;28;20111;-86
2021/03/08 08:32:04;;;;;;;22.13;14.37;;;1.90;99.90;;;;;;5015434;28;20025;-85
2021/03/08 08:34:40;;;;;;;25.20;14.63;;;1.90;99.90;;;;;;4996479;28;20030;-86
2021/03/08 08:37:20;;;;;;;24.00;14.47;;;2.00;99.90;;;;;;4995055;28;20101;-86
2021/03/08 08:40:06;;;;;;;23.47;14.27;;;2.00;99.90;;;;;;4995745;28;20048;-86
2021/03/08 08:42:32;;;;;;;23.47;14.17;;;2.10;99.90;;;;;;4998969;28;20025;-87
2021/03/08 08:44:59;;;;;;;24.43;14.00;;;2.20;99.90;;;;;;5016094;28;20052;-85
2021/03/08 08:47:31;;;;;;;23.33;13.20;;;2.20;99.90;;;;;;5012208;28;20018;-85
2021/03/08 08:50:02;;;;;;;25.45;14.18;;;2.30;99.90;;;;;;5023483;28;20017;-85
2021/03/08 08:52:52;;;;;;;24.00;15.07;;;2.40;99.90;;;;;;5010045;28;20034;-85
2021/03/08 08:55:41;;;;;;;22.30;13.77;;;2.50;99.90;;;;;;5010482;28;20521;-85
2021/03/08 08:58:29;;;;;;;22.07;13.60;;;2.50;99.90;;;;;;5010448;28;20033;-85
2021/03/08 09:03:53;;;;;;;22.60;13.45;;;2.70;99.90;;;;;;5012718;28;20044;-86
2021/03/08 09:06:38;;;;;;;20.60;13.27;;;2.70;99.90;;;;;;5006630;28;20031;-87
2021/03/08 09:09:04;;;;;;;21.63;13.33;;;2.80;99.90;;;;;;5004128;28;20038;-86
2021/03/08 09:11:51;;;;;;;20.47;12.67;;;2.80;99.90;;;;;;5026910;28;20041;-87
2021/03/08 09:14:46;;;;;;;21.17;13.63;;;2.90;99.90;;;;;;5025837;28;20025;-86
2021/03/08 09:17:28;;;;;;;23.00;15.43;;;2.90;99.90;;;;;;5008666;28;20496;-86
2021/03/08 09:19:57;;;;;;;20.73;14.00;;;3.00;99.90;;;;;;5002877;28;20030;-87
2021/03/08 09:22:26;;;;;;;28.07;16.97;;;3.10;99.90;;;;;;5010756;28;20026;-85
2021/03/08 09:24:56;;;;;;;22.00;13.50;;;3.20;99.90;;;;;;5013654;28;20068;-85
2021/03/08 09:27:30;;;;;;;23.57;13.63;;;3.20;99.90;;;;;;5002658;28;20034;-85
2021/03/08 09:30:04;;;;;;;22.93;13.50;;;3.20;99.90;;;;;;4998658;28;20036;-85
2021/03/08 09:32:30;;;;;;;19.97;12.63;;;3.40;99.90;;;;;;5008339;28;20026;-85
2021/03/08 09:35:09;;;;;;;21.90;13.70;;;3.40;99.90;;;;;;5004960;28;20084;-85
2021/03/08 09:37:35;;;;;;;21.57;12.80;;;3.50;99.90;;;;;;5001783;28;20024;-85
2021/03/08 09:40:03;;;;;;;19.90;12.50;;;3.50;99.90;;;;;;5009368;28;20080;-86
2021/03/08 09:42:37;;;;;;;19.03;12.10;;;3.60;99.90;;;;;;5004075;28;20029;-86
2021/03/08 09:45:31;;;;;;;18.70;11.97;;;3.70;99.90;;;;;;5002441;28;20518;-86
2021/03/08 09:47:58;;;;;;;19.13;12.13;;;3.70;99.90;;;;;;5005153;28;20109;-86
2021/03/08 09:50:27;;;;;;;18.93;11.13;;;3.80;99.90;;;;;;5010481;28;20053;-86
2021/03/08 09:52:55;;;;;;;20.57;12.43;;;3.80;99.60;;;;;;5011006;28;20025;-86
2021/03/08 09:55:29;;;;;;;16.87;11.17;;;3.80;99.30;;;;;;4997250;28;20471;-85
2021/03/08 09:57:56;;;;;;;17.10;10.60;;;4.00;99.10;;;;;;5008068;28;20061;-86
2021/03/08 10:00:28;;;;;;;15.00;10.63;;;4.10;97.50;;;;;;5027457;28;20034;-86
2021/03/08 10:03:02;;;;;;;18.33;11.48;;;4.20;97.40;;;;;;5008835;28;20116;-87
2021/03/08 10:05:57;;;;;;;19.27;11.67;;;4.30;97.80;;;;;;5020818;28;20125;-87
2021/03/08 10:08:29;;;;;;;16.33;11.23;;;4.50;96.30;;;;;;5006195;28;20390;-85
2021/03/08 10:10:56;;;;;;;15.47;10.50;;;4.50;95.80;;;;;;5025880;28;20096;-86
2021/03/08 10:13:24;;;;;;;17.67;11.23;;;4.50;95.70;;;;;;5008496;28;20531;-85
2021/03/08 10:15:52;;;;;;;15.67;11.23;;;4.60;95.50;;;;;;5008613;28;20090;-85
2021/03/08 10:18:28;;;;;;;16.13;10.97;;;4.70;96.60;;;;;;5024813;28;20504;-86
2021/03/08 10:20:59;;;;;;;17.93;10.93;;;4.70;95.50;;;;;;5007300;28;20037;-85
2021/03/08 10:23:27;;;;;;;16.80;10.97;;;4.80;94.50;;;;;;5026208;28;20022;-86
2021/03/08 10:26:02;;;;;;;14.63;10.60;;;4.90;94.40;;;;;;5029407;28;20042;-84
2021/03/08 10:28:42;;;;;;;17.33;10.87;;;5.00;94.10;;;;;;5005228;28;20492;-86
2021/03/08 10:31:29;;;;;;;14.83;9.53;;;4.90;93.70;;;;;;5006250;28;20030;-85
2021/03/08 10:33:57;;;;;;;21.37;10.60;;;5.00;92.10;;;;;;5020620;28;20398;-85
2021/03/08 10:36:26;;;;;;;17.23;11.20;;;5.00;94.20;;;;;;5004471;28;20494;-85
2021/03/08 10:38:59;;;;;;;15.73;9.87;;;4.90;93.40;;;;;;5023820;28;20029;-88
2021/03/08 10:41:30;;;;;;;16.13;10.03;;;5.00;93.10;;;;;;5023710;28;20037;-87
2021/03/08 10:43:57;;;;;;;14.70;9.23;;;5.20;91.90;;;;;;4999939;28;20112;-85
2021/03/08 10:46:34;;;;;;;13.23;8.73;;;5.20;90.90;;;;;;5000205;28;20018;-86
2021/03/08 10:49:03;;;;;;;16.03;9.77;;;5.20;88.60;;;;;;5001603;28;20045;-85
2021/03/08 10:51:29;;;;;;;18.30;9.63;;;5.30;89.80;;;;;;5024524;28;20033;-86
2021/03/08 10:54:05;;;;;;;12.70;9.37;;;5.30;88.80;;;;;;5005550;28;20398;-86
2021/03/08 10:56:33;;;;;;;14.63;9.57;;;5.30;89.20;;;;;;5006077;28;20064;-85
2021/03/08 10:58:59;;;;;;;15.23;9.10;;;5.30;89.60;;;;;;5000619;28;20040;-85
2021/03/08 11:01:27;;;;;;;16.57;10.13;;;5.50;88.00;;;;;;5010686;28;20382;-86
2021/03/08 11:03:53;;;;;;;14.37;9.37;;;5.50;88.40;;;;;;5010710;28;20036;-85
2021/03/08 11:06:20;;;;;;;12.93;9.10;;;5.60;87.80;;;;;;5027391;28;20026;-86
2021/03/08 11:08:59;;;;;;;13.27;8.80;;;5.70;85.40;;;;;;5028958;28;20025;-85
2021/03/08 11:11:28;;;;;;;15.30;9.50;;;5.60;85.70;;;;;;5007811;28;20048;-84
2021/03/08 11:13:58;;;;;;;15.20;9.20;;;5.60;85.90;;;;;;5011022;28;20847;-86
2021/03/08 11:16:24;;;;;;;12.63;8.60;;;5.70;83.50;;;;;;5005406;28;20021;-85
2021/03/08 11:18:50;;;;;;;15.47;8.17;;;5.70;84.70;;;;;;5010856;28;20030;-86
2021/03/08 11:21:20;;;;;;;11.63;8.33;;;5.60;85.00;;;;;;5005665;28;20101;-86
2021/03/08 11:23:46;;;;;;;12.00;8.00;;;5.60;83.50;;;;;;5007713;28;20393;-86
2021/03/08 11:26:12;;;;;;;13.87;8.70;;;5.70;81.60;;;;;;5008692;28;20022;-86
2021/03/08 11:28:39;;;;;;;16.40;8.57;;;5.80;82.20;;;;;;5011971;28;20037;-86
2021/03/08 11:31:06;;;;;;;12.53;7.87;;;5.80;80.60;;;;;;5023512;28;20033;-86
2021/03/08 11:33:35;;;;;;;12.60;8.27;;;5.90;80.70;;;;;;5013343;28;20469;-85
2021/03/08 11:36:01;;;;;;;13.13;8.07;;;6.10;79.90;;;;;;5010846;28;20055;-85
2021/03/08 11:38:28;;;;;;;13.20;8.70;;;6.10;78.30;;;;;;5007115;28;20378;-86
2021/03/08 11:40:55;;;;;;;13.70;8.47;;;6.10;76.60;;;;;;5012608;28;20028;-86
2021/03/08 11:43:25;;;;;;;11.90;8.27;;;6.00;75.60;;;;;;5028577;28;20021;-86
2021/03/08 11:45:52;;;;;;;12.90;8.30;;;6.20;75.00;;;;;;5011199;28;20083;-86
2021/03/08 11:48:25;;;;;;;14.47;9.10;;;6.20;75.50;;;;;;5027645;28;20065;-85
2021/03/08 11:50:51;;;;;;;14.40;8.97;;;6.30;75.40;;;;;;5014123;28;20024;-87
2021/03/08 11:53:17;;;;;;;13.13;8.80;;;6.40;74.10;;;;;;5006448;28;20021;-86
2021/03/08 11:55:43;;;;;;;16.03;9.53;;;6.60;73.70;;;;;;5026223;28;20083;-86
2021/03/08 11:58:08;;;;;;;17.00;9.40;;;6.50;74.70;;;;;;5012484;28;20171;-86
2021/03/08 12:00:34;;;;;;;13.43;9.40;;;6.30;74.10;;;;;;5033032;28;20025;-85
2021/03/08 12:02:59;;;;;;;15.07;9.53;;;6.40;74.60;;;;;;5034277;28;20036;-85
2021/03/08 12:05:25;;;;;;;15.53;10.07;;;6.40;74.20;;;;;;5014261;28;20041;-86
2021/03/08 12:07:50;;;;;;;13.40;9.37;;;6.40;74.20;;;;;;5016439;28;20025;-86
2021/03/08 12:10:16;;;;;;;14.13;9.53;;;6.50;73.70;;;;;;5029045;28;20044;-85
2021/03/08 12:12:43;;;;;;;14.67;9.77;;;6.60;73.10;;;;;;5015429;28;20431;-85
2021/03/08 12:15:11;;;;;;;14.80;9.43;;;6.70;73.60;;;;;;5009313;28;20038;-86
2021/03/08 12:17:37;;;;;;;13.93;9.50;;;6.90;72.60;;;;;;5031605;28;20030;-85
2021/03/08 12:20:13;;;;;;;14.33;9.47;;;6.90;71.80;;;;;;5034376;28;20029;-86
2021/03/08 12:22:40;;;;;;;15.67;9.37;;;6.70;70.90;;;;;;5012186;28;20034;-85
2021/03/08 12:25:08;;;;;;;14.10;9.53;;;6.90;70.40;;;;;;5034486;28;20029;-85
2021/03/08 12:27:34;;;;;;;14.97;9.27;;;6.80;69.70;;;;;;5032822;28;20025;-86
2021/03/08 12:30:04;;;;;;;13.77;9.17;;;6.90;68.80;;;;;;5017380;28;20036;-85
2021/03/08 12:32:30;;;;;;;13.30;9.40;;;6.90;69.00;;;;;;5016860;28;20038;-86
2021/03/08 12:34:56;;;;;;;14.23;9.10;;;6.70;69.00;;;;;;5019586;28;20033;-86
2021/03/08 12:37:21;;;;;;;12.20;9.03;;;6.90;70.30;;;;;;5016530;28;20037;-85
2021/03/08 12:39:47;;;;;;;13.93;9.60;;;6.90;68.60;;;;;;5032432;28;20041;-85
2021/03/08 12:42:13;;;;;;;14.50;9.37;;;6.90;68.00;;;;;;5018809;28;20503;-85
2021/03/08 12:44:38;;;;;;;13.80;9.53;;;7.10;67.40;;;;;;5016025;28;20017;-85
2021/03/08 12:47:04;;;;;;;14.23;9.20;;;7.30;67.80;;;;;;5015728;28;20382;-85
2021/03/08 12:49:30;;;;;;;12.07;8.83;;;7.40;66.90;;;;;;5027789;28;20053;-86
2021/03/08 12:51:56;;;;;;;14.97;9.60;;;7.20;66.00;;;;;;5010463;28;20060;-88
2021/03/08 12:54:21;;;;;;;14.67;9.50;;;7.20;65.90;;;;;;5015266;28;20029;-88
2021/03/08 12:56:47;;;;;;;13.63;9.43;;;7.20;66.20;;;;;;5025247;28;20025;-86
2021/03/08 12:59:13;;;;;;;15.67;9.07;;;7.50;67.30;;;;;;5009746;28;20033;-85
2021/03/08 13:01:38;;;;;;;14.03;9.07;;;7.70;67.30;;;;;;5023375;28;20034;-86
2021/03/08 13:04:04;;;;;;;14.23;8.97;;;7.90;66.00;;;;;;5005296;28;20044;-85
2021/03/08 13:06:29;;;;;;;12.30;8.63;;;8.10;64.30;;;;;;5007450;28;20021;-86
2021/03/08 13:08:55;;;;;;;15.60;9.05;;;8.20;63.80;;;;;;5010375;28;20446;-84
2021/03/08 13:11:22;;;;;;;14.20;10.03;;;8.30;63.70;;;;;;5011197;28;20080;-86
2021/03/08 13:13:48;;;;;;;12.17;9.27;;;8.30;62.80;;;;;;5010326;28;20022;-87
2021/03/08 13:16:14;;;;;;;14.47;9.73;;;8.30;61.60;;;;;;5007797;28;20075;-85
2021/03/08 13:18:41;;;;;;;14.30;9.17;;;8.30;61.40;;;;;;5011988;28;20033;-85
2021/03/08 13:21:06;;;;;;;13.73;8.77;;;8.40;62.30;;;;;;5011076;28;20025;-84
2021/03/08 13:23:32;;;;;;;14.43;8.47;;;8.40;63.60;;;;;;5012571;28;20746;-86
2021/03/08 13:25:58;;;;;;;12.07;8.47;;;8.20;60.60;;;;;;5006251;28;20037;-85
2021/03/08 13:28:25;;;;;;;15.27;9.63;;;8.20;61.20;;;;;;5011551;28;20029;-86
2021/03/08 15:34:54;;;;;;;11.23;6.68;;;9.00;51.40;;;;;;5008068;28;20049;-86
2021/03/08 15:37:21;;;;;;;9.73;6.55;;;8.80;51.90;;;;;;4992526;28;20080;-86
2021/03/08 15:39:52;;;;;;;11.40;6.60;;;8.50;52.00;;;;;;4996015;28;20026;-85
2021/03/08 15:42:18;;;;;;;9.35;5.78;;;8.30;52.40;;;;;;4996044;28;20091;-86
2021/03/08 15:44:44;;;;;;;12.00;6.35;;;8.00;53.50;;;;;;5010066;28;20424;-86
2021/03/08 15:47:09;;;;;;;10.93;5.77;;;7.80;54.00;;;;;;4977848;28;20424;-86
2021/03/08 15:49:35;;;;;;;9.33;5.73;;;7.60;54.20;;;;;;5006370;28;20022;-86
2021/03/08 15:52:01;;;;;;;9.23;6.07;;;7.50;55.30;;;;;;5001553;28;20046;-85
2021/03/08 15:54:26;;;;;;;12.70;6.20;;;7.50;55.20;;;;;;4984693;28;20428;-85
2021/03/08 15:56:52;;;;;;;14.10;6.30;;;7.40;54.70;;;;;;4985937;28;20092;-85
2021/03/08 15:59:18;;;;;;;9.00;5.73;;;7.40;55.10;;;;;;4989118;28;20089;-85
2021/03/08 16:01:44;;;;;;;10.63;5.87;;;7.40;55.90;;;;;;4985088;28;20446;-85
2021/03/08 16:04:09;;;;;;;9.33;6.13;;;7.30;55.10;;;;;;4977299;28;20035;-85
2021/03/08 16:06:35;;;;;;;9.97;6.37;;;7.30;55.50;;;;;;4991293;28;20062;-85
2021/03/08 16:09:01;;;;;;;8.37;5.90;;;7.20;55.80;;;;;;4989853;28;20097;-85
2021/03/08 16:11:26;;;;;;;12.37;6.43;;;7.20;56.20;;;;;;4980059;28;20081;-86
2021/03/08 16:13:52;;;;;;;9.53;5.63;;;7.10;56.00;;;;;;5000167;28;20034;-86
2021/03/08 16:16:17;;;;;;;10.37;5.83;;;7.10;55.30;;;;;;4976582;28;20026;-85
2021/03/08 16:18:43;;;;;;;10.47;6.00;;;7.10;55.00;;;;;;5002577;28;20018;-86
2021/03/08 16:21:09;;;;;;;10.07;5.60;;;7.00;55.80;;;;;;4987165;28;20510;-86
2021/03/08 16:23:34;;;;;;;9.13;5.53;;;6.90;56.20;;;;;;4991656;28;20510;-86
2021/03/08 16:26:00;;;;;;;9.90;5.43;;;6.80;57.10;;;;;;4974110;28;20679;-86
2021/03/08 16:28:25;;;;;;;9.17;5.73;;;6.90;56.70;;;;;;4993190;28;20503;-86
2021/03/08 16:30:51;;;;;;;11.30;6.37;;;6.70;56.70;;;;;;4989726;28;20101;-86
2021/03/08 16:33:17;;;;;;;10.47;5.57;;;6.70;56.80;;;;;;4994123;28;20403;-85
2021/03/08 16:35:43;;;;;;;9.10;5.33;;;6.70;57.40;;;;;;4974864;28;20050;-85
2021/03/08 16:38:09;;;;;;;9.47;5.30;;;6.60;57.30;;;;;;4992197;28;20080;-85
2021/03/08 16:40:35;;;;;;;10.23;5.97;;;6.60;57.50;;;;;;4997988;28;20022;-86
2021/03/08 16:43:01;;;;;;;8.50;5.53;;;6.50;57.70;;;;;;4982111;28;20057;-86
2021/03/08 16:45:27;;;;;;;9.50;5.73;;;6.40;58.20;;;;;;4971569;28;20050;-86
2021/03/08 16:47:52;;;;;;;9.13;5.70;;;6.30;59.00;;;;;;4989249;28;20123;-85
2021/03/08 16:50:21;;;;;;;12.23;6.30;;;6.30;59.60;;;;;;4967964;28;20363;-87
2021/03/08 16:52:47;;;;;;;11.07;6.60;;;6.20;59.10;;;;;;4982069;28;20427;-86
2021/03/08 16:55:18;;;;;;;12.33;5.80;;;6.20;59.40;;;;;;4993935;28;20031;-86
2021/03/08 16:57:44;;;;;;;9.13;6.20;;;6.10;60.10;;;;;;4981551;28;20085;-86
2021/03/08 17:00:12;;;;;;;10.03;6.13;;;6.10;59.90;;;;;;4990328;28;20393;-87
2021/03/08 17:02:38;;;;;;;9.87;5.30;;;6.00;60.50;;;;;;4995382;28;20499;-87
2021/03/08 17:05:05;;;;;;;10.53;5.70;;;6.00;61.00;;;;;;4990733;28;20033;-85
2021/03/08 17:07:30;;;;;;;10.07;5.57;;;5.90;61.70;;;;;;4991412;28;20022;-86
2021/03/08 17:09:56;;;;;;;11.47;5.53;;;5.90;61.40;;;;;;4985760;28;20025;-86
2021/03/08 17:12:22;;;;;;;10.83;5.50;;;5.90;61.60;;;;;;4970346;28;20023;-85
2021/03/08 17:14:47;;;;;;;9.70;5.50;;;5.80;62.10;;;;;;4981205;28;20029;-86
2021/03/08 17:17:13;;;;;;;9.20;5.60;;;5.70;62.40;;;;;;4976779;28;20034;-86
2021/03/08 17:19:41;;;;;;;9.23;5.40;;;5.60;62.80;;;;;;4965535;28;20041;-85
2021/03/08 17:22:07;;;;;;;10.80;6.47;;;5.50;63.30;;;;;;4984973;28;20031;-86
2021/03/08 17:24:33;;;;;;;10.03;5.93;;;5.40;64.00;;;;;;4979172;28;20076;-86
2021/03/08 17:26:58;;;;;;;9.83;5.83;;;5.40;64.30;;;;;;4977271;28;20030;-86
2021/03/08 17:29:24;;;;;;;13.53;8.50;;;5.40;64.40;;;;;;4986925;28;20046;-86
2021/03/08 17:31:50;;;;;;;13.33;6.97;;;5.30;64.70;;;;;;4987101;28;20026;-85
2021/03/08 17:34:16;;;;;;;11.27;6.23;;;5.30;65.60;;;;;;4990854;28;20042;-86
2021/03/08 17:36:41;;;;;;;9.80;6.20;;;5.20;66.30;;;;;;4981618;28;20492;-86
2021/03/08 17:39:07;;;;;;;10.37;5.87;;;5.10;67.00;;;;;;4972492;28;20031;-86
2021/03/08 17:41:33;;;;;;;8.73;5.57;;;5.00;67.10;;;;;;4978566;28;20484;-86
2021/03/08 17:43:58;;;;;;;10.43;5.40;;;5.00;67.50;;;;;;4984659;28;20038;-86
2021/03/08 17:46:24;;;;;;;11.47;5.70;;;4.90;68.10;;;;;;4982439;28;20483;-85
2021/03/08 17:48:52;;;;;;;10.03;5.83;;;4.90;69.20;;;;;;4962132;28;20031;-86
2021/03/08 17:51:17;;;;;;;13.10;6.77;;;4.80;70.10;;;;;;4980325;28;20072;-86
2021/03/08 17:53:43;;;;;;;10.10;5.93;;;4.80;70.40;;;;;;4981458;28;20117;-86
2021/03/08 17:56:09;;;;;;;10.17;6.07;;;4.80;70.80;;;;;;4984636;28;20042;-86
2021/03/08 17:58:34;;;;;;;12.53;5.93;;;4.70;71.70;;;;;;4986721;28;20058;-86
2021/03/08 18:01:00;;;;;;;9.43;5.23;;;4.70;72.20;;;;;;4990049;28;20066;-86
2021/03/08 18:03:25;;;;;;;11.43;6.27;;;4.60;72.80;;;;;;4984918;28;20027;-87
2021/03/08 18:05:51;;;;;;;11.03;6.27;;;4.60;73.70;;;;;;4993257;28;20026;-86
2021/03/08 18:08:17;;;;;;;11.70;5.93;;;4.60;74.60;;;;;;4992945;28;20471;-86
2021/03/08 18:10:42;;;;;;;10.97;6.23;;;4.50;75.40;;;;;;4978409;28;20476;-86
2021/03/08 18:13:08;;;;;;;10.17;4.77;;;4.50;76.50;;;;;;4973864;28;20519;-86
2021/03/08 18:15:36;;;;;;;7.80;4.20;;;4.40;77.40;;;;;;4969725;28;20030;-86
2021/03/08 18:18:02;;;;;;;7.60;4.17;;;4.40;78.30;;;;;;4973678;28;20034;-85
2021/03/08 18:20:31;;;;;;;9.87;4.20;;;4.30;79.10;;;;;;4989645;28;20513;-86
2021/03/08 18:22:57;;;;;;;8.37;4.03;;;4.30;80.20;;;;;;4971266;28;20130;-86
2021/03/08 18:25:23;;;;;;;8.37;4.33;;;4.30;81.30;;;;;;4992443;28;20068;-88
2021/03/08 18:27:49;;;;;;;7.23;4.20;;;4.20;82.30;;;;;;4975571;28;20039;-87
2021/03/08 18:30:15;;;;;;;10.10;3.50;;;4.20;83.20;;;;;;4988033;28;20149;-86
2021/03/08 18:32:41;;;;;;;10.63;4.00;;;4.10;84.20;;;;;;4988904;28;20026;-87
2021/03/08 18:35:08;;;;;;;8.27;4.07;;;4.10;85.00;;;;;;4989774;28;20105;-86
2021/03/08 18:37:33;;;;;;;7.77;4.20;;;4.10;85.40;;;;;;4975150;28;20034;-86
2021/03/08 18:39:59;;;;;;;8.40;3.83;;;4.10;86.40;;;;;;4985911;28;20455;-87
2021/03/08 18:42:25;;;;;;;7.07;3.70;;;4.10;88.20;;;;;;4985673;28;20027;-87
2021/03/08 18:44:51;;;;;;;6.87;3.90;;;4.10;90.10;;;;;;4991273;28;20061;-88
2021/03/08 18:47:17;;;;;;;9.47;3.87;;;4.10;90.60;;;;;;4973047;28;20023;-87
2021/03/08 18:49:43;;;;;;;8.93;4.60;;;4.10;91.20;;;;;;4975684;28;20100;-88
2021/03/08 18:52:08;;;;;;;11.37;5.67;;;4.10;91.90;;;;;;4965943;28;20035;-87
2021/03/08 18:54:34;;;;;;;8.93;4.13;;;4.00;93.20;;;;;;4980267;28;20541;-87
2021/03/08 18:57:00;;;;;;;9.50;5.13;;;4.00;95.00;;;;;;4979139;28;20030;-86
2021/03/08 18:59:25;;;;;;;12.13;5.40;;;4.00;95.70;;;;;;4975410;28;20030;-87
2021/03/08 19:01:51;;;;;;;8.10;4.33;;;4.00;96.20;;;;;;4988948;28;20026;-87
2021/03/08 19:04:17;;;;;;;10.13;5.17;;;3.90;97.60;;;;;;4985175;28;20081;-87
2021/03/08 19:06:42;;;;;;;8.90;5.30;;;3.90;98.60;;;;;;4992456;28;20041;-87
2021/03/08 19:09:08;;;;;;;10.07;4.67;;;3.90;99.20;;;;;;4992201;28;20351;-86
2021/03/08 19:11:34;;;;;;;10.67;5.00;;;3.90;99.90;;;;;;4991998;28;20061;-88
2021/03/08 19:13:59;;;;;;;11.10;5.43;;;3.90;99.90;;;;;;4988412;28;20045;-87
2021/03/08 19:16:25;;;;;;;10.07;4.93;;;3.80;99.90;;;;;;4987913;28;20060;-88
2021/03/08 19:18:51;;;;;;;9.67;4.90;;;3.90;99.90;;;;;;4991636;28;20026;-87
2021/03/08 19:21:17;;;;;;;10.17;5.67;;;3.90;99.90;;;;;;4974897;28;20507;-86
2021/03/08 19:23:43;;;;;;;9.63;4.93;;;3.90;99.90;;;;;;4991769;28;20034;-87
2021/03/08 19:26:09;;;;;;;9.00;5.13;;;3.80;99.90;;;;;;4975105;28;20030;-87
2021/03/08 19:28:35;;;;;;;9.73;5.23;;;3.80;99.90;;;;;;4975099;28;20093;-86
2021/03/08 19:31:03;;;;;;;11.43;5.33;;;3.70;99.90;;;;;;4974445;28;20359;-87
2021/03/08 19:33:28;;;;;;;9.70;5.33;;;3.70;99.90;;;;;;4988810;28;20511;-87
2021/03/08 19:35:54;;;;;;;9.37;4.57;;;3.70;99.90;;;;;;4994502;28;20322;-87
2021/03/08 19:38:19;;;;;;;9.60;4.67;;;3.60;99.90;;;;;;4994952;28;20030;-87
2021/03/08 19:40:45;;;;;;;10.77;5.47;;;3.60;99.90;;;;;;4977288;28;20026;-87
2021/03/08 19:43:11;;;;;;;10.67;5.17;;;3.50;99.90;;;;;;4992873;28;20117;-86
2021/03/08 19:45:37;;;;;;;10.77;5.30;;;3.50;99.90;;;;;;4978919;28;20026;-86
2021/03/08 19:48:03;;;;;;;10.60;5.27;;;3.40;99.90;;;;;;4980622;28;20023;-87
2021/03/08 19:50:29;;;;;;;10.70;4.90;;;3.40;99.90;;;;;;4970764;28;20051;-87
2021/03/08 19:52:55;;;;;;;13.33;5.43;;;3.30;99.90;;;;;;4993781;28;20026;-87
2021/03/08 19:55:20;;;;;;;10.23;4.60;;;3.30;99.90;;;;;;4976054;28;20137;-86
2021/03/08 19:57:46;;;;;;;7.80;4.90;;;3.30;99.90;;;;;;4990784;28;20076;-87
2021/03/08 20:00:16;;;;;;;9.07;5.03;;;3.30;99.90;;;;;;4977759;28;20042;-87
2021/03/08 20:02:42;;;;;;;8.00;4.90;;;3.30;99.90;;;;;;4987827;28;20195;-86
2021/03/08 20:05:09;;;;;;;11.37;4.77;;;3.20;99.90;;;;;;4986625;28;20032;-86
2021/03/08 20:07:34;;;;;;;10.47;4.67;;;3.20;99.90;;;;;;4973202;28;20129;-87
2021/03/08 20:10:00;;;;;;;8.53;4.50;;;3.20;99.90;;;;;;4979482;28;20514;-87
2021/03/08 20:12:26;;;;;;;9.00;4.90;;;3.10;99.90;;;;;;4994276;28;20069;-85
2021/03/08 20:14:54;;;;;;;9.03;4.77;;;3.10;99.90;;;;;;4993185;28;20042;-87
2021/03/08 20:17:20;;;;;;;8.27;4.90;;;3.10;99.90;;;;;;4978213;28;20041;-87
2021/03/08 20:19:45;;;;;;;6.90;4.43;;;3.10;99.90;;;;;;4986681;28;20415;-87
2021/03/08 20:22:11;;;;;;;10.77;4.97;;;3.00;99.90;;;;;;4976743;28;20041;-86
2021/03/08 20:24:38;;;;;;;9.17;5.47;;;3.00;99.90;;;;;;4989288;28;20146;-87
2021/03/08 20:27:08;;;;;;;8.90;4.40;;;3.00;99.90;;;;;;4992143;28;20019;-87
2021/03/08 20:29:35;;;;;;;8.13;4.63;;;2.90;99.90;;;;;;4985890;28;20023;-88
2021/03/08 20:32:02;;;;;;;12.00;6.70;;;2.90;99.90;;;;;;4986731;28;20027;-87
2021/03/08 20:34:28;;;;;;;10.47;5.20;;;2.90;99.90;;;;;;4988556;28;20042;-87
2021/03/08 20:36:53;;;;;;;11.70;5.27;;;2.80;99.90;;;;;;4975739;28;20571;-86
2021/03/08 20:39:19;;;;;;;9.53;4.97;;;2.80;99.90;;;;;;4990455;28;20034;-85
2021/03/08 20:41:45;;;;;;;10.47;5.00;;;2.80;99.90;;;;;;4992882;28;20542;-87
2021/03/08 20:44:10;;;;;;;9.43;5.00;;;2.70;99.90;;;;;;4992844;28;20039;-86
2021/03/08 20:46:38;;;;;;;9.47;5.00;;;2.70;99.90;;;;;;4991311;28;20030;-87
2021/03/08 20:49:04;;;;;;;7.13;4.63;;;2.70;99.90;;;;;;4992430;28;20033;-87
2021/03/08 20:51:30;;;;;;;8.60;4.80;;;2.70;99.90;;;;;;4994375;28;20133;-87
2021/03/08 20:53:56;;;;;;;8.23;4.50;;;2.70;99.90;;;;;;4991876;28;20068;-87
2021/03/08 20:56:21;;;;;;;9.73;4.97;;;2.60;99.90;;;;;;4993906;28;20465;-87
2021/03/08 20:58:47;;;;;;;9.40;4.53;;;2.60;99.90;;;;;;4975851;28;20049;-85
2021/03/08 21:01:13;;;;;;;9.57;4.83;;;2.60;99.90;;;;;;4975194;28;20030;-86
2021/03/08 21:03:38;;;;;;;12.53;4.67;;;2.60;99.90;;;;;;4972837;28;20045;-87